sensor_id;sensor_type;location;lat;lon;timestamp;P1;durP1;ratioP1;P2;durP2;ratioP2
43801;SDS011;29429;51.074;13.764;2023-05-07T00:00:07;18.10;;;11.52;;
43801;SDS011;29429;51.074;13.764;2023-05-07T00:02:36;19.35;;;13.52;;
43801;SDS011;29429;51.074;13.764;2023-05-07T00:05:04;22.42;;;13.98;;
43801;SDS011;29429;51.074;13.764;2023-05-07T00:07:32;19.55;;;13.23;;
43801;SDS011;29429;51.074;13.764;2023-05-07T00:09:59;20.80;;;14.05;;
43801;SDS011;29429;51.074;13.764;2023-05-07T00:12:26;22.15;;;13.90;;
43801;SDS011;29429;51.074;13.764;2023-05-07T00:14:53;20.80;;;14.30;;
43801;SDS011;29429;51.074;13.764;2023-05-07T00:17:20;21.08;;;14.32;;
43801;SDS011;29429;51.074;13.764;2023-05-07T00:19:47;20.90;;;14.90;;
43801;SDS011;29429;51.074;13.764;2023-05-07T00:22:14;25.40;;;16.05;;
43801;SDS011;29429;51.074;13.764;2023-05-07T00:24:41;25.45;;;16.58;;
43801;SDS011;29429;51.074;13.764;2023-05-07T00:27:08;22.45;;;15.93;;
43801;SDS011;29429;51.074;13.764;2023-05-07T00:29:35;28.17;;;17.70;;
43801;SDS011;29429;51.074;13.764;2023-05-07T00:32:02;29.33;;;17.70;;
43801;SDS011;29429;51.074;13.764;2023-05-07T00:34:30;26.20;;;16.98;;
43801;SDS011;29429;51.074;13.764;2023-05-07T00:36:57;28.48;;;17.42;;
43801;SDS011;29429;51.074;13.764;2023-05-07T00:39:24;24.85;;;17.83;;
43801;SDS011;29429;51.074;13.764;2023-05-07T00:41:51;26.88;;;16.58;;
43801;SDS011;29429;51.074;13.764;2023-05-07T00:44:18;24.08;;;17.38;;
43801;SDS011;29429;51.074;13.764;2023-05-07T00:46:45;25.90;;;17.23;;
43801;SDS011;29429;51.074;13.764;2023-05-07T00:49:16;25.95;;;17.55;;
43801;SDS011;29429;51.074;13.764;2023-05-07T00:51:44;24.85;;;17.05;;
43801;SDS011;29429;51.074;13.764;2023-05-07T00:54:12;24.00;;;14.95;;
43801;SDS011;29429;51.074;13.764;2023-05-07T00:56:40;23.23;;;16.17;;
43801;SDS011;29429;51.074;13.764;2023-05-07T00:59:07;22.98;;;16.45;;
43801;SDS011;29429;51.074;13.764;2023-05-07T01:01:34;21.27;;;15.05;;
43801;SDS011;29429;51.074;13.764;2023-05-07T01:04:03;21.75;;;14.95;;
43801;SDS011;29429;51.074;13.764;2023-05-07T01:06:31;20.60;;;14.38;;
43801;SDS011;29429;51.074;13.764;2023-05-07T01:09:00;20.58;;;13.63;;
43801;SDS011;29429;51.074;13.764;2023-05-07T01:11:28;20.77;;;14.48;;
43801;SDS011;29429;51.074;13.764;2023-05-07T01:13:55;21.23;;;15.73;;
43801;SDS011;29429;51.074;13.764;2023-05-07T01:16:25;20.75;;;14.27;;
43801;SDS011;29429;51.074;13.764;2023-05-07T01:18:53;20.02;;;14.60;;
43801;SDS011;29429;51.074;13.764;2023-05-07T01:21:20;17.45;;;13.60;;
43801;SDS011;29429;51.074;13.764;2023-05-07T01:23:56;18.50;;;13.82;;
43801;SDS011;29429;51.074;13.764;2023-05-07T01:26:24;19.45;;;13.77;;
43801;SDS011;29429;51.074;13.764;2023-05-07T01:28:51;19.35;;;14.82;;
43801;SDS011;29429;51.074;13.764;2023-05-07T01:31:18;17.77;;;13.05;;
43801;SDS011;29429;51.074;13.764;2023-05-07T01:33:46;19.02;;;13.77;;
43801;SDS011;29429;51.074;13.764;2023-05-07T01:36:17;17.45;;;13.30;;
43801;SDS011;29429;51.074;13.764;2023-05-07T01:38:46;17.65;;;13.25;;
43801;SDS011;29429;51.074;13.764;2023-05-07T01:41:14;19.13;;;13.20;;
43801;SDS011;29429;51.074;13.764;2023-05-07T01:43:41;19.13;;;14.88;;
43801;SDS011;29429;51.074;13.764;2023-05-07T01:46:09;19.90;;;14.52;;
43801;SDS011;29429;51.074;13.764;2023-05-07T01:48:38;21.52;;;14.55;;
43801;SDS011;29429;51.074;13.764;2023-05-07T01:51:06;16.90;;;12.82;;
43801;SDS011;29429;51.074;13.764;2023-05-07T01:53:35;18.27;;;13.02;;
43801;SDS011;29429;51.074;13.764;2023-05-07T01:56:03;22.90;;;15.48;;
43801;SDS011;29429;51.074;13.764;2023-05-07T01:58:33;20.60;;;15.43;;
43801;SDS011;29429;51.074;13.764;2023-05-07T02:01:00;18.58;;;13.95;;
43801;SDS011;29429;51.074;13.764;2023-05-07T02:03:28;19.67;;;14.23;;
43801;SDS011;29429;51.074;13.764;2023-05-07T02:06:04;19.42;;;14.55;;
43801;SDS011;29429;51.074;13.764;2023-05-07T02:08:34;22.33;;;15.85;;
43801;SDS011;29429;51.074;13.764;2023-05-07T02:11:01;19.10;;;13.65;;
43801;SDS011;29429;51.074;13.764;2023-05-07T02:13:29;17.98;;;13.27;;
43801;SDS011;29429;51.074;13.764;2023-05-07T02:15:59;22.23;;;15.43;;
43801;SDS011;29429;51.074;13.764;2023-05-07T02:18:27;19.73;;;13.85;;
43801;SDS011;29429;51.074;13.764;2023-05-07T02:20:54;17.40;;;14.48;;
43801;SDS011;29429;51.074;13.764;2023-05-07T02:23:21;19.30;;;13.93;;
43801;SDS011;29429;51.074;13.764;2023-05-07T02:25:48;17.23;;;13.00;;
43801;SDS011;29429;51.074;13.764;2023-05-07T02:28:16;19.25;;;13.80;;
43801;SDS011;29429;51.074;13.764;2023-05-07T02:30:53;17.63;;;13.00;;
43801;SDS011;29429;51.074;13.764;2023-05-07T02:33:21;17.25;;;13.00;;
43801;SDS011;29429;51.074;13.764;2023-05-07T02:35:47;15.55;;;11.43;;
43801;SDS011;29429;51.074;13.764;2023-05-07T02:38:15;16.05;;;12.30;;
43801;SDS011;29429;51.074;13.764;2023-05-07T02:40:42;15.70;;;11.23;;
43801;SDS011;29429;51.074;13.764;2023-05-07T02:43:09;19.83;;;12.95;;
43801;SDS011;29429;51.074;13.764;2023-05-07T02:45:39;17.15;;;11.43;;
43801;SDS011;29429;51.074;13.764;2023-05-07T02:48:07;16.15;;;10.65;;
43801;SDS011;29429;51.074;13.764;2023-05-07T02:50:34;15.27;;;10.60;;
43801;SDS011;29429;51.074;13.764;2023-05-07T02:53:01;16.50;;;10.57;;
43801;SDS011;29429;51.074;13.764;2023-05-07T02:55:28;14.80;;;10.02;;
43801;SDS011;29429;51.074;13.764;2023-05-07T02:57:56;19.23;;;10.63;;
43801;SDS011;29429;51.074;13.764;2023-05-07T03:00:23;13.95;;;9.57;;
43801;SDS011;29429;51.074;13.764;2023-05-07T03:03:01;13.50;;;10.25;;
43801;SDS011;29429;51.074;13.764;2023-05-07T03:05:28;12.60;;;9.50;;
43801;SDS011;29429;51.074;13.764;2023-05-07T03:07:55;11.63;;;8.07;;
43801;SDS011;29429;51.074;13.764;2023-05-07T03:10:22;14.95;;;10.05;;
43801;SDS011;29429;51.074;13.764;2023-05-07T03:12:49;13.85;;;9.82;;
43801;SDS011;29429;51.074;13.764;2023-05-07T03:15:16;14.82;;;9.60;;
43801;SDS011;29429;51.074;13.764;2023-05-07T03:17:44;13.02;;;8.73;;
43801;SDS011;29429;51.074;13.764;2023-05-07T03:20:11;14.75;;;9.77;;
43801;SDS011;29429;51.074;13.764;2023-05-07T03:22:40;14.63;;;10.60;;
43801;SDS011;29429;51.074;13.764;2023-05-07T03:25:07;15.02;;;10.05;;
43801;SDS011;29429;51.074;13.764;2023-05-07T03:27:35;18.65;;;11.48;;
43801;SDS011;29429;51.074;13.764;2023-05-07T03:30:02;18.58;;;11.32;;
43801;SDS011;29429;51.074;13.764;2023-05-07T03:32:30;19.90;;;12.15;;
43801;SDS011;29429;51.074;13.764;2023-05-07T03:34:57;20.83;;;11.80;;
43801;SDS011;29429;51.074;13.764;2023-05-07T03:37:24;19.88;;;11.95;;
43801;SDS011;29429;51.074;13.764;2023-05-07T03:39:51;19.02;;;13.35;;
43801;SDS011;29429;51.074;13.764;2023-05-07T03:42:19;20.83;;;13.50;;
43801;SDS011;29429;51.074;13.764;2023-05-07T03:44:49;19.88;;;12.68;;
43801;SDS011;29429;51.074;13.764;2023-05-07T03:47:17;20.90;;;13.23;;
43801;SDS011;29429;51.074;13.764;2023-05-07T03:49:45;22.15;;;13.23;;
43801;SDS011;29429;51.074;13.764;2023-05-07T03:52:13;19.35;;;12.13;;
43801;SDS011;29429;51.074;13.764;2023-05-07T03:54:41;18.40;;;11.68;;
43801;SDS011;29429;51.074;13.764;2023-05-07T03:57:10;18.80;;;11.88;;
43801;SDS011;29429;51.074;13.764;2023-05-07T03:59:38;22.95;;;14.52;;
43801;SDS011;29429;51.074;13.764;2023-05-07T04:02:07;20.88;;;12.80;;
43801;SDS011;29429;51.074;13.764;2023-05-07T04:04:34;27.15;;;14.05;;
43801;SDS011;29429;51.074;13.764;2023-05-07T04:07:01;23.98;;;13.98;;
43801;SDS011;29429;51.074;13.764;2023-05-07T04:09:33;19.52;;;12.88;;
43801;SDS011;29429;51.074;13.764;2023-05-07T04:12:00;20.85;;;13.65;;
43801;SDS011;29429;51.074;13.764;2023-05-07T04:14:28;18.92;;;11.98;;
43801;SDS011;29429;51.074;13.764;2023-05-07T04:16:59;19.83;;;11.82;;
43801;SDS011;29429;51.074;13.764;2023-05-07T04:19:26;19.02;;;12.07;;
43801;SDS011;29429;51.074;13.764;2023-05-07T04:21:54;19.45;;;11.57;;
43801;SDS011;29429;51.074;13.764;2023-05-07T04:24:21;17.33;;;10.93;;
43801;SDS011;29429;51.074;13.764;2023-05-07T04:26:48;18.75;;;12.15;;
43801;SDS011;29429;51.074;13.764;2023-05-07T04:29:19;18.98;;;11.65;;
43801;SDS011;29429;51.074;13.764;2023-05-07T04:31:47;21.02;;;12.45;;
43801;SDS011;29429;51.074;13.764;2023-05-07T04:34:16;19.63;;;12.80;;
43801;SDS011;29429;51.074;13.764;2023-05-07T04:36:43;21.27;;;12.85;;
43801;SDS011;29429;51.074;13.764;2023-05-07T04:39:12;19.70;;;12.93;;
43801;SDS011;29429;51.074;13.764;2023-05-07T04:41:42;18.20;;;11.10;;
43801;SDS011;29429;51.074;13.764;2023-05-07T04:44:09;17.48;;;12.40;;
43801;SDS011;29429;51.074;13.764;2023-05-07T04:46:37;18.83;;;12.35;;
43801;SDS011;29429;51.074;13.764;2023-05-07T04:49:05;17.40;;;11.32;;
43801;SDS011;29429;51.074;13.764;2023-05-07T04:51:33;20.38;;;12.77;;
43801;SDS011;29429;51.074;13.764;2023-05-07T04:54:00;16.95;;;10.25;;
43801;SDS011;29429;51.074;13.764;2023-05-07T04:56:29;18.60;;;11.30;;
43801;SDS011;29429;51.074;13.764;2023-05-07T04:58:57;17.05;;;10.60;;
43801;SDS011;29429;51.074;13.764;2023-05-07T05:01:24;17.05;;;10.70;;
43801;SDS011;29429;51.074;13.764;2023-05-07T05:03:51;15.45;;;10.60;;
43801;SDS011;29429;51.074;13.764;2023-05-07T05:06:19;16.67;;;9.50;;
43801;SDS011;29429;51.074;13.764;2023-05-07T05:08:46;15.13;;;10.57;;
43801;SDS011;29429;51.074;13.764;2023-05-07T05:11:13;13.75;;;9.07;;
43801;SDS011;29429;51.074;13.764;2023-05-07T05:13:41;16.63;;;10.25;;
43801;SDS011;29429;51.074;13.764;2023-05-07T05:16:13;19.65;;;10.82;;
43801;SDS011;29429;51.074;13.764;2023-05-07T05:18:40;14.35;;;10.10;;
43801;SDS011;29429;51.074;13.764;2023-05-07T05:21:10;15.85;;;10.63;;
43801;SDS011;29429;51.074;13.764;2023-05-07T05:23:38;14.02;;;10.07;;
43801;SDS011;29429;51.074;13.764;2023-05-07T05:26:05;16.23;;;11.35;;
43801;SDS011;29429;51.074;13.764;2023-05-07T05:28:33;13.93;;;10.25;;
43801;SDS011;29429;51.074;13.764;2023-05-07T05:31:01;16.35;;;10.40;;
43801;SDS011;29429;51.074;13.764;2023-05-07T05:33:32;15.48;;;10.60;;
43801;SDS011;29429;51.074;13.764;2023-05-07T05:36:02;15.02;;;10.63;;
43801;SDS011;29429;51.074;13.764;2023-05-07T05:38:31;18.35;;;11.35;;
43801;SDS011;29429;51.074;13.764;2023-05-07T05:40:59;15.57;;;11.32;;
43801;SDS011;29429;51.074;13.764;2023-05-07T05:43:28;16.92;;;11.05;;
43801;SDS011;29429;51.074;13.764;2023-05-07T05:45:55;20.70;;;13.30;;
43801;SDS011;29429;51.074;13.764;2023-05-07T05:48:24;23.80;;;15.63;;
43801;SDS011;29429;51.074;13.764;2023-05-07T05:50:51;21.00;;;13.43;;
43801;SDS011;29429;51.074;13.764;2023-05-07T05:53:19;56.60;;;33.63;;
43801;SDS011;29429;51.074;13.764;2023-05-07T05:55:46;18.80;;;12.43;;
43801;SDS011;29429;51.074;13.764;2023-05-07T05:58:13;15.73;;;9.50;;
43801;SDS011;29429;51.074;13.764;2023-05-07T06:00:48;14.50;;;9.90;;
43801;SDS011;29429;51.074;13.764;2023-05-07T06:03:15;13.20;;;8.63;;
43801;SDS011;29429;51.074;13.764;2023-05-07T06:05:42;14.00;;;8.68;;
43801;SDS011;29429;51.074;13.764;2023-05-07T06:08:10;13.30;;;8.43;;
43801;SDS011;29429;51.074;13.764;2023-05-07T06:10:38;10.20;;;7.18;;
43801;SDS011;29429;51.074;13.764;2023-05-07T06:16:43;10.65;;;7.28;;
43801;SDS011;29429;51.074;13.764;2023-05-07T06:19:11;12.30;;;7.57;;
43801;SDS011;29429;51.074;13.764;2023-05-07T06:21:39;10.00;;;7.25;;
43801;SDS011;29429;51.074;13.764;2023-05-07T06:24:06;10.10;;;7.07;;
43801;SDS011;29429;51.074;13.764;2023-05-07T06:26:36;11.35;;;7.65;;
43801;SDS011;29429;51.074;13.764;2023-05-07T08:05:12;3.95;;;3.55;;
43801;SDS011;29429;51.074;13.764;2023-05-07T08:07:40;4.57;;;3.55;;
43801;SDS011;29429;51.074;13.764;2023-05-07T08:10:07;3.50;;;3.10;;
43801;SDS011;29429;51.074;13.764;2023-05-07T08:12:35;3.45;;;3.00;;
43801;SDS011;29429;51.074;13.764;2023-05-07T08:15:02;3.45;;;2.70;;
43801;SDS011;29429;51.074;13.764;2023-05-07T08:17:30;3.00;;;2.70;;
43801;SDS011;29429;51.074;13.764;2023-05-07T08:19:57;3.67;;;3.08;;
43801;SDS011;29429;51.074;13.764;2023-05-07T08:22:24;3.40;;;2.92;;
43801;SDS011;29429;51.074;13.764;2023-05-07T08:24:52;3.17;;;2.65;;
43801;SDS011;29429;51.074;13.764;2023-05-07T08:27:20;3.80;;;3.40;;
43801;SDS011;29429;51.074;13.764;2023-05-07T08:29:47;2.80;;;2.55;;
43801;SDS011;29429;51.074;13.764;2023-05-07T08:32:17;2.72;;;2.40;;
43801;SDS011;29429;51.074;13.764;2023-05-07T08:34:44;4.35;;;3.63;;
43801;SDS011;29429;51.074;13.764;2023-05-07T08:37:11;4.55;;;3.30;;
43801;SDS011;29429;51.074;13.764;2023-05-07T08:39:38;3.60;;;3.28;;
43801;SDS011;29429;51.074;13.764;2023-05-07T08:42:11;3.92;;;3.40;;
43801;SDS011;29429;51.074;13.764;2023-05-07T08:44:44;3.95;;;3.55;;
43801;SDS011;29429;51.074;13.764;2023-05-07T08:47:17;5.35;;;4.10;;
43801;SDS011;29429;51.074;13.764;2023-05-07T08:50:01;5.95;;;4.63;;
43801;SDS011;29429;51.074;13.764;2023-05-07T08:52:28;6.07;;;4.60;;
43801;SDS011;29429;51.074;13.764;2023-05-07T08:54:56;5.90;;;4.22;;
43801;SDS011;29429;51.074;13.764;2023-05-07T08:57:25;5.45;;;4.53;;
43801;SDS011;29429;51.074;13.764;2023-05-07T08:59:52;6.70;;;4.80;;
43801;SDS011;29429;51.074;13.764;2023-05-07T09:02:19;7.30;;;5.30;;
43801;SDS011;29429;51.074;13.764;2023-05-07T09:04:47;6.55;;;4.72;;
43801;SDS011;29429;51.074;13.764;2023-05-07T09:07:15;6.55;;;4.38;;
43801;SDS011;29429;51.074;13.764;2023-05-07T09:09:46;5.93;;;4.90;;
43801;SDS011;29429;51.074;13.764;2023-05-07T09:12:14;5.75;;;4.50;;
43801;SDS011;29429;51.074;13.764;2023-05-07T09:14:41;7.00;;;5.40;;
43801;SDS011;29429;51.074;13.764;2023-05-07T09:17:08;6.78;;;5.20;;
43801;SDS011;29429;51.074;13.764;2023-05-07T09:19:36;6.07;;;4.82;;
43801;SDS011;29429;51.074;13.764;2023-05-07T09:22:05;5.25;;;4.28;;
43801;SDS011;29429;51.074;13.764;2023-05-07T09:24:55;4.93;;;3.83;;
43801;SDS011;29429;51.074;13.764;2023-05-07T09:27:25;5.47;;;4.80;;
43801;SDS011;29429;51.074;13.764;2023-05-07T09:29:54;5.10;;;4.22;;
43801;SDS011;29429;51.074;13.764;2023-05-07T09:32:21;6.72;;;4.57;;
43801;SDS011;29429;51.074;13.764;2023-05-07T09:34:48;6.32;;;4.00;;
43801;SDS011;29429;51.074;13.764;2023-05-07T09:37:18;5.40;;;4.60;;
43801;SDS011;29429;51.074;13.764;2023-05-07T09:39:46;6.85;;;4.82;;
43801;SDS011;29429;51.074;13.764;2023-05-07T09:42:23;5.18;;;4.68;;
43801;SDS011;29429;51.074;13.764;2023-05-07T09:44:55;5.32;;;4.53;;
43801;SDS011;29429;51.074;13.764;2023-05-07T09:47:26;6.38;;;4.78;;
43801;SDS011;29429;51.074;13.764;2023-05-07T09:50:03;5.30;;;4.68;;
43801;SDS011;29429;51.074;13.764;2023-05-07T09:52:35;6.40;;;4.85;;
43801;SDS011;29429;51.074;13.764;2023-05-07T09:55:05;6.47;;;5.10;;
43801;SDS011;29429;51.074;13.764;2023-05-07T09:57:33;6.90;;;5.93;;
43801;SDS011;29429;51.074;13.764;2023-05-07T10:00:05;7.93;;;5.43;;
43801;SDS011;29429;51.074;13.764;2023-05-07T10:02:48;5.93;;;4.85;;
43801;SDS011;29429;51.074;13.764;2023-05-07T10:05:25;7.35;;;6.10;;
43801;SDS011;29429;51.074;13.764;2023-05-07T10:07:56;6.93;;;5.65;;
43801;SDS011;29429;51.074;13.764;2023-05-07T10:10:24;6.93;;;5.82;;
43801;SDS011;29429;51.074;13.764;2023-05-07T10:12:53;9.38;;;5.68;;
43801;SDS011;29429;51.074;13.764;2023-05-07T10:15:28;8.25;;;5.82;;
43801;SDS011;29429;51.074;13.764;2023-05-07T10:17:58;5.90;;;4.97;;
43801;SDS011;29429;51.074;13.764;2023-05-07T10:20:27;7.22;;;5.80;;
43801;SDS011;29429;51.074;13.764;2023-05-07T10:22:56;6.10;;;4.72;;
43801;SDS011;29429;51.074;13.764;2023-05-07T10:25:32;5.80;;;4.57;;
43801;SDS011;29429;51.074;13.764;2023-05-07T10:28:06;5.20;;;4.68;;
43801;SDS011;29429;51.074;13.764;2023-05-07T10:30:51;6.88;;;5.10;;
43801;SDS011;29429;51.074;13.764;2023-05-07T10:33:34;6.88;;;5.47;;
43801;SDS011;29429;51.074;13.764;2023-05-07T10:36:03;6.47;;;4.95;;
43801;SDS011;29429;51.074;13.764;2023-05-07T10:38:34;7.35;;;5.57;;
43801;SDS011;29429;51.074;13.764;2023-05-07T10:41:01;5.78;;;5.18;;
43801;SDS011;29429;51.074;13.764;2023-05-07T10:43:39;6.43;;;5.03;;
43801;SDS011;29429;51.074;13.764;2023-05-07T10:46:14;6.60;;;4.80;;
43801;SDS011;29429;51.074;13.764;2023-05-07T10:52:10;5.10;;;4.60;;
43801;SDS011;29429;51.074;13.764;2023-05-07T10:58:27;5.13;;;4.38;;
43801;SDS011;29429;51.074;13.764;2023-05-07T11:01:49;4.22;;;3.75;;
43801;SDS011;29429;51.074;13.764;2023-05-07T11:08:08;6.53;;;5.90;;
43801;SDS011;29429;51.074;13.764;2023-05-07T11:10:49;5.80;;;4.97;;
43801;SDS011;29429;51.074;13.764;2023-05-07T11:13:47;5.40;;;4.63;;
43801;SDS011;29429;51.074;13.764;2023-05-07T11:16:26;6.18;;;4.13;;
43801;SDS011;29429;51.074;13.764;2023-05-07T11:19:13;5.00;;;4.15;;
43801;SDS011;29429;51.074;13.764;2023-05-07T11:21:45;4.22;;;3.83;;
43801;SDS011;29429;51.074;13.764;2023-05-07T11:24:25;4.15;;;3.80;;
43801;SDS011;29429;51.074;13.764;2023-05-07T11:27:02;4.75;;;4.25;;
43801;SDS011;29429;51.074;13.764;2023-05-07T11:29:30;4.20;;;3.80;;
43801;SDS011;29429;51.074;13.764;2023-05-07T11:32:04;4.73;;;4.23;;
43801;SDS011;29429;51.074;13.764;2023-05-07T11:34:39;6.22;;;4.50;;
43801;SDS011;29429;51.074;13.764;2023-05-07T11:37:06;5.35;;;4.45;;
43801;SDS011;29429;51.074;13.764;2023-05-07T11:39:48;4.97;;;4.47;;
43801;SDS011;29429;51.074;13.764;2023-05-07T11:42:28;4.50;;;3.90;;
43801;SDS011;29429;51.074;13.764;2023-05-07T11:44:57;5.50;;;4.30;;
43801;SDS011;29429;51.074;13.764;2023-05-07T11:47:25;5.20;;;4.38;;
43801;SDS011;29429;51.074;13.764;2023-05-07T11:49:55;4.40;;;3.92;;
43801;SDS011;29429;51.074;13.764;2023-05-07T11:52:23;5.90;;;4.72;;
43801;SDS011;29429;51.074;13.764;2023-05-07T11:54:55;4.43;;;4.00;;
43801;SDS011;29429;51.074;13.764;2023-05-07T11:57:24;5.82;;;4.63;;
43801;SDS011;29429;51.074;13.764;2023-05-07T11:59:52;6.22;;;4.15;;
43801;SDS011;29429;51.074;13.764;2023-05-07T12:02:20;4.70;;;4.20;;
43801;SDS011;29429;51.074;13.764;2023-05-07T12:04:48;5.70;;;4.50;;
43801;SDS011;29429;51.074;13.764;2023-05-07T12:07:16;5.68;;;4.68;;
43801;SDS011;29429;51.074;13.764;2023-05-07T12:09:45;6.20;;;5.00;;
43801;SDS011;29429;51.074;13.764;2023-05-07T12:12:14;5.45;;;4.53;;
43801;SDS011;29429;51.074;13.764;2023-05-07T12:14:45;5.38;;;4.32;;
43801;SDS011;29429;51.074;13.764;2023-05-07T12:17:15;6.22;;;4.88;;
43801;SDS011;29429;51.074;13.764;2023-05-07T12:19:43;4.85;;;4.32;;
43801;SDS011;29429;51.074;13.764;2023-05-07T12:22:12;4.93;;;4.15;;
43801;SDS011;29429;51.074;13.764;2023-05-07T12:27:14;4.85;;;4.25;;
43801;SDS011;29429;51.074;13.764;2023-05-07T12:29:44;5.30;;;4.10;;
43801;SDS011;29429;51.074;13.764;2023-05-07T12:32:15;5.07;;;4.57;;
43801;SDS011;29429;51.074;13.764;2023-05-07T12:34:43;4.75;;;4.35;;
43801;SDS011;29429;51.074;13.764;2023-05-07T12:37:12;4.90;;;4.40;;
43801;SDS011;29429;51.074;13.764;2023-05-07T12:39:49;4.47;;;3.88;;
43801;SDS011;29429;51.074;13.764;2023-05-07T12:42:36;4.40;;;4.00;;
43801;SDS011;29429;51.074;13.764;2023-05-07T12:45:07;4.40;;;4.00;;
43801;SDS011;29429;51.074;13.764;2023-05-07T12:47:43;5.15;;;4.22;;
43801;SDS011;29429;51.074;13.764;2023-05-07T12:50:11;7.00;;;4.40;;
43801;SDS011;29429;51.074;13.764;2023-05-07T12:52:40;4.32;;;3.83;;
43801;SDS011;29429;51.074;13.764;2023-05-07T12:55:09;4.38;;;3.97;;
43801;SDS011;29429;51.074;13.764;2023-05-07T12:57:43;6.30;;;3.75;;
43801;SDS011;29429;51.074;13.764;2023-05-07T13:00:14;4.15;;;3.75;;
43801;SDS011;29429;51.074;13.764;2023-05-07T13:02:43;4.28;;;3.88;;
43801;SDS011;29429;51.074;13.764;2023-05-07T13:05:12;4.22;;;3.83;;
43801;SDS011;29429;51.074;13.764;2023-05-07T13:07:40;3.47;;;3.17;;
43801;SDS011;29429;51.074;13.764;2023-05-07T13:10:18;4.18;;;3.78;;
43801;SDS011;29429;51.074;13.764;2023-05-07T13:12:45;3.90;;;3.50;;
43801;SDS011;29429;51.074;13.764;2023-05-07T13:15:13;4.03;;;2.88;;
43801;SDS011;29429;51.074;13.764;2023-05-07T13:17:41;4.80;;;3.28;;
43801;SDS011;29429;51.074;13.764;2023-05-07T13:20:09;4.47;;;3.08;;
43801;SDS011;29429;51.074;13.764;2023-05-07T13:22:39;3.47;;;3.17;;
43801;SDS011;29429;51.074;13.764;2023-05-07T13:25:07;5.05;;;3.20;;
43801;SDS011;29429;51.074;13.764;2023-05-07T13:27:35;5.15;;;3.70;;
43801;SDS011;29429;51.074;13.764;2023-05-07T13:30:03;3.75;;;3.45;;
43801;SDS011;29429;51.074;13.764;2023-05-07T13:32:32;6.15;;;2.97;;
43801;SDS011;29429;51.074;13.764;2023-05-07T13:35:00;3.92;;;3.50;;
43801;SDS011;29429;51.074;13.764;2023-05-07T13:37:28;3.45;;;3.15;;
43801;SDS011;29429;51.074;13.764;2023-05-07T13:39:55;4.03;;;3.50;;
43801;SDS011;29429;51.074;13.764;2023-05-07T13:42:24;3.72;;;3.10;;
43801;SDS011;29429;51.074;13.764;2023-05-07T13:44:51;4.03;;;3.35;;
43801;SDS011;29429;51.074;13.764;2023-05-07T13:47:18;3.90;;;3.50;;
43801;SDS011;29429;51.074;13.764;2023-05-07T13:49:48;5.07;;;3.53;;
43801;SDS011;29429;51.074;13.764;2023-05-07T13:52:16;3.70;;;3.40;;
43801;SDS011;29429;51.074;13.764;2023-05-07T13:54:43;3.90;;;3.30;;
43801;SDS011;29429;51.074;13.764;2023-05-07T13:57:11;5.45;;;3.83;;
43801;SDS011;29429;51.074;13.764;2023-05-07T13:59:38;3.58;;;3.20;;
43801;SDS011;29429;51.074;13.764;2023-05-07T14:02:06;3.38;;;3.08;;
43801;SDS011;29429;51.074;13.764;2023-05-07T14:04:35;3.10;;;2.80;;
43801;SDS011;29429;51.074;13.764;2023-05-07T14:07:03;3.17;;;2.72;;
43801;SDS011;29429;51.074;13.764;2023-05-07T14:09:31;4.82;;;2.92;;
43801;SDS011;29429;51.074;13.764;2023-05-07T14:11:58;8.10;;;2.78;;
43801;SDS011;29429;51.074;13.764;2023-05-07T14:14:26;2.63;;;2.42;;
43801;SDS011;29429;51.074;13.764;2023-05-07T14:16:53;3.47;;;3.17;;
43801;SDS011;29429;51.074;13.764;2023-05-07T14:19:21;3.78;;;2.83;;
43801;SDS011;29429;51.074;13.764;2023-05-07T14:21:51;4.88;;;2.70;;
43801;SDS011;29429;51.074;13.764;2023-05-07T14:24:19;4.25;;;2.20;;
43801;SDS011;29429;51.074;13.764;2023-05-07T14:27:00;3.67;;;2.50;;
43801;SDS011;29429;51.074;13.764;2023-05-07T14:29:27;2.97;;;2.50;;
43801;SDS011;29429;51.074;13.764;2023-05-07T14:31:55;2.65;;;2.25;;
43801;SDS011;29429;51.074;13.764;2023-05-07T14:34:22;3.55;;;2.20;;
43801;SDS011;29429;51.074;13.764;2023-05-07T14:36:50;2.67;;;2.38;;
43801;SDS011;29429;51.074;13.764;2023-05-07T14:39:18;4.32;;;3.35;;
43801;SDS011;29429;51.074;13.764;2023-05-07T14:41:46;2.50;;;2.28;;
43801;SDS011;29429;51.074;13.764;2023-05-07T14:44:14;2.60;;;2.20;;
43801;SDS011;29429;51.074;13.764;2023-05-07T14:46:41;4.65;;;2.63;;
43801;SDS011;29429;51.074;13.764;2023-05-07T14:49:09;4.10;;;2.67;;
43801;SDS011;29429;51.074;13.764;2023-05-07T14:51:43;7.27;;;3.03;;
43801;SDS011;29429;51.074;13.764;2023-05-07T14:54:11;3.22;;;2.88;;
43801;SDS011;29429;51.074;13.764;2023-05-07T14:56:40;2.83;;;2.55;;
43801;SDS011;29429;51.074;13.764;2023-05-07T14:59:08;4.25;;;2.95;;
43801;SDS011;29429;51.074;13.764;2023-05-07T15:01:36;2.70;;;2.42;;
43801;SDS011;29429;51.074;13.764;2023-05-07T15:04:04;3.90;;;3.13;;
43801;SDS011;29429;51.074;13.764;2023-05-07T15:06:32;4.78;;;3.10;;
43801;SDS011;29429;51.074;13.764;2023-05-07T15:08:59;3.08;;;2.67;;
43801;SDS011;29429;51.074;13.764;2023-05-07T15:11:27;3.17;;;2.88;;
43801;SDS011;29429;51.074;13.764;2023-05-07T15:13:54;4.85;;;3.05;;
43801;SDS011;29429;51.074;13.764;2023-05-07T15:16:21;3.22;;;2.92;;
43801;SDS011;29429;51.074;13.764;2023-05-07T15:18:49;4.03;;;3.17;;
43801;SDS011;29429;51.074;13.764;2023-05-07T15:21:16;4.50;;;3.25;;
43801;SDS011;29429;51.074;13.764;2023-05-07T15:23:43;4.65;;;3.78;;
43801;SDS011;29429;51.074;13.764;2023-05-07T15:26:11;5.43;;;3.33;;
43801;SDS011;29429;51.074;13.764;2023-05-07T15:28:38;6.68;;;3.45;;
43801;SDS011;29429;51.074;13.764;2023-05-07T15:31:06;4.40;;;3.88;;
43801;SDS011;29429;51.074;13.764;2023-05-07T15:33:34;4.38;;;3.60;;
43801;SDS011;29429;51.074;13.764;2023-05-07T15:36:01;5.50;;;3.92;;
43801;SDS011;29429;51.074;13.764;2023-05-07T15:38:29;3.85;;;3.45;;
43801;SDS011;29429;51.074;13.764;2023-05-07T15:40:56;4.60;;;4.05;;
43801;SDS011;29429;51.074;13.764;2023-05-07T15:43:23;4.22;;;3.47;;
43801;SDS011;29429;51.074;13.764;2023-05-07T15:45:51;5.68;;;4.50;;
43801;SDS011;29429;51.074;13.764;2023-05-07T15:48:19;5.40;;;4.65;;
43801;SDS011;29429;51.074;13.764;2023-05-07T15:50:46;5.80;;;4.07;;
43801;SDS011;29429;51.074;13.764;2023-05-07T15:53:14;4.63;;;4.18;;
43801;SDS011;29429;51.074;13.764;2023-05-07T15:55:41;6.78;;;4.38;;
43801;SDS011;29429;51.074;13.764;2023-05-07T15:58:10;7.97;;;3.90;;
43801;SDS011;29429;51.074;13.764;2023-05-07T16:00:37;6.10;;;4.18;;
43801;SDS011;29429;51.074;13.764;2023-05-07T16:03:07;5.97;;;3.58;;
43801;SDS011;29429;51.074;13.764;2023-05-07T16:05:34;4.68;;;3.80;;
43801;SDS011;29429;51.074;13.764;2023-05-07T16:08:02;5.53;;;4.30;;
43801;SDS011;29429;51.074;13.764;2023-05-07T16:10:30;6.90;;;4.15;;
43801;SDS011;29429;51.074;13.764;2023-05-07T16:12:57;3.83;;;3.25;;
43801;SDS011;29429;51.074;13.764;2023-05-07T16:15:25;4.65;;;3.65;;
43801;SDS011;29429;51.074;13.764;2023-05-07T16:17:52;4.50;;;3.80;;
43801;SDS011;29429;51.074;13.764;2023-05-07T16:20:27;4.78;;;4.10;;
43801;SDS011;29429;51.074;13.764;2023-05-07T16:22:57;4.47;;;4.07;;
43801;SDS011;29429;51.074;13.764;2023-05-07T16:25:25;8.07;;;4.53;;
43801;SDS011;29429;51.074;13.764;2023-05-07T16:27:52;9.07;;;4.32;;